sensor_id;sensor_type;location;lat;lon;timestamp;P1;durP1;ratioP1;P2;durP2;ratioP2
928;SDS011;451;47.988;7.842;2023-06-10T00:01:35;8.10;;;7.33;;
928;SDS011;451;47.988;7.842;2023-06-10T00:10:40;7.63;;;7.03;;
928;SDS011;451;47.988;7.842;2023-06-10T00:19:43;8.37;;;7.67;;
928;SDS011;451;47.988;7.842;2023-06-10T00:28:49;8.53;;;7.63;;
928;SDS011;451;47.988;7.842;2023-06-10T00:37:53;8.83;;;8.03;;
928;SDS011;451;47.988;7.842;2023-06-10T00:46:58;9.30;;;8.60;;
928;SDS011;451;47.988;7.842;2023-06-10T00:56:01;9.03;;;8.30;;
928;SDS011;451;47.988;7.842;2023-06-10T01:05:06;8.87;;;8.17;;
928;SDS011;451;47.988;7.842;2023-06-10T01:14:10;8.87;;;8.17;;
928;SDS011;451;47.988;7.842;2023-06-10T01:23:15;9.33;;;8.63;;
928;SDS011;451;47.988;7.842;2023-06-10T01:32:21;9.83;;;8.93;;
928;SDS011;451;47.988;7.842;2023-06-10T01:41:30;9.27;;;8.50;;
928;SDS011;451;47.988;7.842;2023-06-10T01:50:34;9.20;;;8.40;;
928;SDS011;451;47.988;7.842;2023-06-10T01:59:38;11.57;;;9.77;;
928;SDS011;451;47.988;7.842;2023-06-10T02:08:41;9.60;;;8.80;;
928;SDS011;451;47.988;7.842;2023-06-10T02:17:46;10.80;;;9.87;;
928;SDS011;451;47.988;7.842;2023-06-10T02:26:50;10.90;;;10.10;;
928;SDS011;451;47.988;7.842;2023-06-10T02:35:56;10.67;;;9.67;;
928;SDS011;451;47.988;7.842;2023-06-10T02:45:00;10.23;;;9.23;;
928;SDS011;451;47.988;7.842;2023-06-10T02:54:15;10.93;;;10.10;;
928;SDS011;451;47.988;7.842;2023-06-10T03:03:19;11.00;;;10.10;;
928;SDS011;451;47.988;7.842;2023-06-10T03:12:34;12.40;;;11.30;;
928;SDS011;451;47.988;7.842;2023-06-10T03:21:38;12.43;;;11.30;;
928;SDS011;451;47.988;7.842;2023-06-10T03:30:44;13.10;;;11.70;;
928;SDS011;451;47.988;7.842;2023-06-10T03:39:49;11.23;;;10.23;;
928;SDS011;451;47.988;7.842;2023-06-10T03:48:54;11.20;;;10.30;;
928;SDS011;451;47.988;7.842;2023-06-10T03:58:02;11.77;;;10.77;;
928;SDS011;451;47.988;7.842;2023-06-10T04:07:07;11.70;;;10.70;;
928;SDS011;451;47.988;7.842;2023-06-10T04:16:11;13.60;;;12.50;;
928;SDS011;451;47.988;7.842;2023-06-10T04:25:16;12.77;;;11.63;;
928;SDS011;451;47.988;7.842;2023-06-10T04:34:20;12.03;;;10.93;;
928;SDS011;451;47.988;7.842;2023-06-10T04:43:25;12.40;;;11.40;;
928;SDS011;451;47.988;7.842;2023-06-10T04:52:30;13.80;;;12.50;;
928;SDS011;451;47.988;7.842;2023-06-10T05:01:36;12.50;;;11.50;;
928;SDS011;451;47.988;7.842;2023-06-10T05:10:39;13.33;;;12.20;;
928;SDS011;451;47.988;7.842;2023-06-10T05:19:43;14.40;;;13.10;;
928;SDS011;451;47.988;7.842;2023-06-10T05:28:46;13.93;;;12.73;;
928;SDS011;451;47.988;7.842;2023-06-10T05:37:51;13.57;;;12.37;;
928;SDS011;451;47.988;7.842;2023-06-10T05:46:54;12.17;;;11.27;;
928;SDS011;451;47.988;7.842;2023-06-10T05:55:58;13.30;;;12.27;;
928;SDS011;451;47.988;7.842;2023-06-10T06:05:02;12.90;;;11.90;;
928;SDS011;451;47.988;7.842;2023-06-10T06:14:06;12.60;;;11.50;;
928;SDS011;451;47.988;7.842;2023-06-10T06:23:09;10.50;;;9.60;;
928;SDS011;451;47.988;7.842;2023-06-10T06:32:14;9.90;;;9.13;;
928;SDS011;451;47.988;7.842;2023-06-10T06:41:17;11.57;;;10.67;;
928;SDS011;451;47.988;7.842;2023-06-10T06:50:21;10.43;;;9.63;;
928;SDS011;451;47.988;7.842;2023-06-10T06:59:24;9.30;;;8.50;;
928;SDS011;451;47.988;7.842;2023-06-10T07:08:29;10.43;;;9.37;;
928;SDS011;451;47.988;7.842;2023-06-10T07:17:32;10.37;;;9.57;;
928;SDS011;451;47.988;7.842;2023-06-10T07:26:37;10.30;;;9.37;;
928;SDS011;451;47.988;7.842;2023-06-10T07:35:40;9.87;;;9.00;;
928;SDS011;451;47.988;7.842;2023-06-10T07:44:46;10.63;;;9.60;;
928;SDS011;451;47.988;7.842;2023-06-10T07:53:49;10.93;;;10.03;;
928;SDS011;451;47.988;7.842;2023-06-10T08:02:54;9.47;;;8.77;;
928;SDS011;451;47.988;7.842;2023-06-10T08:11:57;8.90;;;8.30;;
928;SDS011;451;47.988;7.842;2023-06-10T08:21:01;10.90;;;10.10;;
928;SDS011;451;47.988;7.842;2023-06-10T08:30:05;9.87;;;9.17;;
928;SDS011;451;47.988;7.842;2023-06-10T08:39:10;10.57;;;9.57;;
928;SDS011;451;47.988;7.842;2023-06-10T08:48:14;10.47;;;9.77;;
928;SDS011;451;47.988;7.842;2023-06-10T08:57:20;11.60;;;10.60;;
928;SDS011;451;47.988;7.842;2023-06-10T09:06:24;11.77;;;10.87;;
928;SDS011;451;47.988;7.842;2023-06-10T09:15:29;10.70;;;9.93;;
928;SDS011;451;47.988;7.842;2023-06-10T09:24:32;14.30;;;13.10;;
928;SDS011;451;47.988;7.842;2023-06-10T09:33:38;17.10;;;15.63;;
928;SDS011;451;47.988;7.842;2023-06-10T09:42:42;13.80;;;12.87;;
928;SDS011;451;47.988;7.842;2023-06-10T09:51:50;14.30;;;13.10;;
928;SDS011;451;47.988;7.842;2023-06-10T10:00:54;14.70;;;13.53;;
928;SDS011;451;47.988;7.842;2023-06-10T10:09:58;14.30;;;13.20;;
928;SDS011;451;47.988;7.842;2023-06-10T10:19:07;14.67;;;13.63;;
928;SDS011;451;47.988;7.842;2023-06-10T10:28:14;15.20;;;14.00;;
928;SDS011;451;47.988;7.842;2023-06-10T10:37:20;16.00;;;14.70;;
928;SDS011;451;47.988;7.842;2023-06-10T10:46:24;15.33;;;14.10;;
928;SDS011;451;47.988;7.842;2023-06-10T10:55:27;14.83;;;13.73;;
928;SDS011;451;47.988;7.842;2023-06-10T11:04:32;15.10;;;13.93;;
928;SDS011;451;47.988;7.842;2023-06-10T11:13:35;15.20;;;14.00;;
928;SDS011;451;47.988;7.842;2023-06-10T11:32:03;14.20;;;13.10;;
928;SDS011;451;47.988;7.842;2023-06-10T11:41:12;13.97;;;12.97;;
928;SDS011;451;47.988;7.842;2023-06-10T11:50:16;15.03;;;13.83;;
928;SDS011;451;47.988;7.842;2023-06-10T11:59:32;13.70;;;12.70;;
928;SDS011;451;47.988;7.842;2023-06-10T12:08:35;13.93;;;12.80;;
928;SDS011;451;47.988;7.842;2023-06-10T12:17:47;13.23;;;12.33;;
928;SDS011;451;47.988;7.842;2023-06-10T12:26:53;12.80;;;11.80;;
928;SDS011;451;47.988;7.842;2023-06-10T12:35:59;12.13;;;11.13;;
928;SDS011;451;47.988;7.842;2023-06-10T12:45:03;12.03;;;11.20;;
928;SDS011;451;47.988;7.842;2023-06-10T12:54:09;16.43;;;14.93;;
928;SDS011;451;47.988;7.842;2023-06-10T13:03:12;16.10;;;14.90;;
928;SDS011;451;47.988;7.842;2023-06-10T13:12:17;16.60;;;15.30;;
928;SDS011;451;47.988;7.842;2023-06-10T13:21:20;15.67;;;14.37;;
928;SDS011;451;47.988;7.842;2023-06-10T13:30:25;17.03;;;15.53;;
928;SDS011;451;47.988;7.842;2023-06-10T13:39:28;16.50;;;14.70;;
928;SDS011;451;47.988;7.842;2023-06-10T13:48:33;16.53;;;15.07;;
928;SDS011;451;47.988;7.842;2023-06-10T13:57:37;13.30;;;12.33;;
928;SDS011;451;47.988;7.842;2023-06-10T14:06:45;14.03;;;12.80;;
928;SDS011;451;47.988;7.842;2023-06-10T14:15:48;12.20;;;11.40;;
928;SDS011;451;47.988;7.842;2023-06-10T14:24:52;12.43;;;11.63;;
928;SDS011;451;47.988;7.842;2023-06-10T14:33:56;11.00;;;10.20;;
928;SDS011;451;47.988;7.842;2023-06-10T14:43:00;10.50;;;9.70;;
928;SDS011;451;47.988;7.842;2023-06-10T14:52:06;10.30;;;9.50;;
928;SDS011;451;47.988;7.842;2023-06-10T15:01:11;10.10;;;9.30;;
928;SDS011;451;47.988;7.842;2023-06-10T15:10:14;10.37;;;9.67;;
928;SDS011;451;47.988;7.842;2023-06-10T15:19:19;7.80;;;7.30;;
928;SDS011;451;47.988;7.842;2023-06-10T15:28:22;7.57;;;7.07;;
928;SDS011;451;47.988;7.842;2023-06-10T15:37:26;9.30;;;8.70;;
928;SDS011;451;47.988;7.842;2023-06-10T15:46:29;9.20;;;8.50;;
928;SDS011;451;47.988;7.842;2023-06-10T15:55:34;8.20;;;7.70;;
928;SDS011;451;47.988;7.842;2023-06-10T16:04:37;8.97;;;8.37;;
928;SDS011;451;47.988;7.842;2023-06-10T16:13:42;9.67;;;8.97;;
928;SDS011;451;47.988;7.842;2023-06-10T16:22:45;8.73;;;8.13;;
928;SDS011;451;47.988;7.842;2023-06-10T16:31:49;10.00;;;9.30;;
928;SDS011;451;47.988;7.842;2023-06-10T16:40:53;8.97;;;8.20;;
928;SDS011;451;47.988;7.842;2023-06-10T16:49:57;8.40;;;7.60;;
928;SDS011;451;47.988;7.842;2023-06-10T16:59:00;7.37;;;6.87;;
928;SDS011;451;47.988;7.842;2023-06-10T17:08:05;7.70;;;7.10;;
928;SDS011;451;47.988;7.842;2023-06-10T17:17:10;7.50;;;7.00;;
928;SDS011;451;47.988;7.842;2023-06-10T17:26:14;7.47;;;6.90;;
928;SDS011;451;47.988;7.842;2023-06-10T17:35:17;10.53;;;9.63;;
928;SDS011;451;47.988;7.842;2023-06-10T17:44:22;10.93;;;10.10;;
928;SDS011;451;47.988;7.842;2023-06-10T17:53:26;10.20;;;9.40;;
928;SDS011;451;47.988;7.842;2023-06-10T18:02:30;9.97;;;9.17;;
928;SDS011;451;47.988;7.842;2023-06-10T18:11:33;11.43;;;10.53;;
928;SDS011;451;47.988;7.842;2023-06-10T18:20:38;11.03;;;10.13;;
928;SDS011;451;47.988;7.842;2023-06-10T18:29:41;10.47;;;9.67;;
928;SDS011;451;47.988;7.842;2023-06-10T18:38:45;14.13;;;10.90;;
928;SDS011;451;47.988;7.842;2023-06-10T18:47:48;12.30;;;11.30;;
928;SDS011;451;47.988;7.842;2023-06-10T18:56:53;10.80;;;9.80;;
928;SDS011;451;47.988;7.842;2023-06-10T19:05:59;10.93;;;10.00;;
928;SDS011;451;47.988;7.842;2023-06-10T19:15:04;11.70;;;10.70;;
928;SDS011;451;47.988;7.842;2023-06-10T19:24:08;11.10;;;10.20;;
928;SDS011;451;47.988;7.842;2023-06-10T19:33:12;11.40;;;10.40;;
928;SDS011;451;47.988;7.842;2023-06-10T19:42:15;10.40;;;9.50;;
928;SDS011;451;47.988;7.842;2023-06-10T19:51:20;8.03;;;7.30;;
928;SDS011;451;47.988;7.842;2023-06-10T20:00:23;7.50;;;6.90;;
928;SDS011;451;47.988;7.842;2023-06-10T20:09:27;7.43;;;6.73;;
928;SDS011;451;47.988;7.842;2023-06-10T20:18:31;7.20;;;6.70;;
928;SDS011;451;47.988;7.842;2023-06-10T20:27:35;8.33;;;7.53;;
928;SDS011;451;47.988;7.842;2023-06-10T20:36:38;8.07;;;7.37;;
928;SDS011;451;47.988;7.842;2023-06-10T20:45:42;7.20;;;6.70;;
928;SDS011;451;47.988;7.842;2023-06-10T20:54:46;6.70;;;6.10;;
928;SDS011;451;47.988;7.842;2023-06-10T21:03:50;7.10;;;6.43;;
928;SDS011;451;47.988;7.842;2023-06-10T21:12:53;7.43;;;6.83;;
928;SDS011;451;47.988;7.842;2023-06-10T21:21:58;9.80;;;8.90;;
928;SDS011;451;47.988;7.842;2023-06-10T21:31:01;8.63;;;7.93;;
928;SDS011;451;47.988;7.842;2023-06-10T21:40:07;9.13;;;8.33;;
928;SDS011;451;47.988;7.842;2023-06-10T21:49:11;8.20;;;7.60;;
928;SDS011;451;47.988;7.842;2023-06-10T21:58:15;9.03;;;8.37;;
928;SDS011;451;47.988;7.842;2023-06-10T22:07:18;8.70;;;8.00;;
928;SDS011;451;47.988;7.842;2023-06-10T22:16:22;8.77;;;7.97;;
928;SDS011;451;47.988;7.842;2023-06-10T22:25:25;9.00;;;8.17;;
928;SDS011;451;47.988;7.842;2023-06-10T22:34:30;8.60;;;7.97;;
928;SDS011;451;47.988;7.842;2023-06-10T22:43:33;8.70;;;7.80;;
928;SDS011;451;47.988;7.842;2023-06-10T22:52:37;7.93;;;7.33;;
928;SDS011;451;47.988;7.842;2023-06-10T23:01:40;8.90;;;8.20;;
928;SDS011;451;47.988;7.842;2023-06-10T23:10:45;9.13;;;8.33;;
928;SDS011;451;47.988;7.842;2023-06-10T23:19:48;8.10;;;7.30;;
928;SDS011;451;47.988;7.842;2023-06-10T23:28:53;8.70;;;7.70;;
928;SDS011;451;47.988;7.842;2023-06-10T23:37:56;7.90;;;7.20;;
928;SDS011;451;47.988;7.842;2023-06-10T23:47:00;8.53;;;7.83;;
928;SDS011;451;47.988;7.842;2023-06-10T23:56:03;8.77;;;8.07;;
